Flight Track Log - Related Links

Times and Time Zones

All times are in EDT time to prevent confusion due to time zone crossing. See the N682RW flight status page for this flight to view local times or setup timezone preferences in your user account.

Time Position Orientation Groundspeed Altitude Reporting Facility
EDT Latitude Longitude Course Direction KTS MPH feet Rate Location/Type
Tue 10:58:00 PM 39.9942 -82.9058 275° West 161 185 1,500  Level Indianapolis Center
Tue 10:59:23 PM 40.0006 -82.9933 275° West 220 253 4,300 3,000 Climbing Indianapolis Center
Tue 11:00:24 PM 40.0703 -83.0558 326° Northwest 284 327 8,700 3,246 Climbing Indianapolis Center
Tue 11:01:25 PM 40.1542 -83.0650 355° North 296 341 10,900 2,361 Climbing Indianapolis Center
Tue 11:02:26 PM 40.2567 -83.0803 354° North 357 411 13,500 2,803 Climbing Indianapolis Center
Tue 11:03:27 PM 40.3617 -83.0942 354° North 374 430 16,600 2,705 Climbing Indianapolis Center
Tue 11:04:28 PM 40.4689 -83.1083 354° North 382 440 19,000 1,171 Climbing Indianapolis Center
Tue 11:05:30 PM 40.5839 -83.1239 354° North 396 456 19,000  Level Indianapolis Center
Tue 11:06:31 PM 40.6964 -83.1397 354° North 398 458 19,000  Level Indianapolis Center
Tue 11:07:32 PM 40.8097 -83.1558 354° North 399 459 19,000  Level Indianapolis Center
Tue 11:08:52 PM 40.9542 -83.1756 354° North 398 458 19,000  Level Cleveland Center
Tue 11:09:53 PM 41.0647 -83.1914 354° North 398 458 19,000 -49 Level Cleveland Center
Tue 11:10:54 PM 41.1778 -83.2069 354° North 395 455 18,900 -1,279 Descending Cleveland Center
Tue 11:11:55 PM 41.2844 -83.2219 354° North 391 450 16,400 -2,115 Descending Cleveland Center
Tue 11:12:56 PM 41.3856 -83.2369 354° North 370 426 14,600 -2,000 Descending Cleveland Center
Tue 11:13:34 PM 41.4547 -83.2483 353° North 347 399 13,100 -2,100 Descending Cleveland Center
Tue 11:13:56 PM 41.4811 -83.2497 358° North 351 404 12,500 -1,625 Descending Cleveland Center
Tue 11:14:22 PM 41.5333 -83.2592 352° North 336 387 11,800 -1,082 Descending Cleveland Center
Tue 11:14:57 PM 41.5736 -83.2625 356° North 337 388 11,400 -787 Descending Cleveland Center
Tue 11:15:23 PM 41.6206 -83.2711 352° North 298 343 11,000 -393 Descending Cleveland Center
Tue 11:15:58 PM 41.6550 -83.2750 355° North 305 351 11,000  Level Cleveland Center
Tue 11:16:24 PM 41.7014 -83.2825 353° North 279 321 11,000  Level Cleveland Center
Tue 11:16:59 PM 41.7314 -83.2861 355° North 282 325 11,000 -600 Level Cleveland Center
Tue 11:17:24 PM 41.7778 -83.2958 351° North 284 327 10,400 -1,082 Descending Cleveland Center
Tue 11:18:00 PM 41.8086 -83.3031 350° North 282 325 9,900 -1,574 Descending Cleveland Center
Tue 11:18:25 PM 41.8536 -83.3175 347° North 271 312 8,800 -2,262 Descending Cleveland Center
Tue 11:19:01 PM 41.8961 -83.3281 350° North 273 314 7,600 -2,300 Descending Cleveland Center
Tue 11:19:25 PM 41.9253 -83.3389 345° North 257 296 6,500 -2,164 Descending Cleveland Center
Tue 11:20:02 PM 41.9583 -83.3519 344° North 259 298 5,400 -1,967 Descending Cleveland Center
Tue 11:20:26 PM 41.9900 -83.3703 337° Northwest 245 282 4,500 -1,700 Descending Cleveland Center
Tue 11:21:02 PM 42.0242 -83.3894 337° Northwest 244 281 3,700 -1,180 Descending Cleveland Center
Tue 11:21:27 PM 42.0486 -83.3983 345° North 191 220 3,300 -1,082 Descending Cleveland Center
Tue 11:22:03 PM 42.0750 -83.4056 349° North 201 231 2,600 -1,200 Descending Cleveland Center
Tue 11:22:27 PM 42.0978 -83.4108 350° North 181 208 2,100 -787 Descending Cleveland Center
Tue 11:23:04 PM 42.1219 -83.4042 12° North 184 212 1,800 -393 Descending Cleveland Center
Tue 11:23:28 PM 42.1392 -83.3914 29° Northeast 144 166 1,700 -295 Descending Cleveland Center
Tue 11:24:05 PM 42.1578 -83.3806 23° Northeast 159 183 1,500 -492 Descending Cleveland Center
Tue 11:24:29 PM 42.1703 -83.3706 31° Northeast 122 140 1,200 -590 Descending Cleveland Center
Tue 11:25:06 PM 42.1856 -83.3586 30° Northeast 135 155 900 -247 Descending Cleveland Center
Tue 11:26:06 PM 42.2139 -83.3372 29° Northeast 132 152 800 -100 Descending Cleveland Center
Tue 11:28:00 PM 42.2000 -83.3500 270° West  Level FlightAware Approximate

Login

Don't have an account? Register now (free) for customized features, flight alerts, and more!